Time;durP1;ratioP1;P1;durP2;ratioP2;P2;SDS_P1;SDS_P2;PMS_P1;PMS_P2;Temp;Humidity;BMP_temperature;BMP_pressure;BME280_temperature;BME280_humidity;BME280_pressure;Samples;Min_cycle;Max_cycle;Signal;HPM_P1;HPM_P2
2023/08/24 05:47:52;;;;;;;;;10.50;10.50;;;;;;;;5856690;22;46594;-75
2023/08/24 05:50:17;;;;;;;;;8.25;7.50;;;;;;;;5013216;28;45553;-76
2023/08/24 05:52:42;;;;;;;;;11.25;9.00;;;;;;;;5015063;28;45540;-77
2023/08/24 05:55:08;;;;;;;;;12.00;10.50;;;;;;;;5012973;28;46945;-75
2023/08/24 05:57:33;;;;;;;;;13.33;12.33;;;;;;;;5016367;28;45574;-75
2023/08/24 05:59:58;;;;;;;;;10.25;9.75;;;;;;;;5014848;28;45334;-75
2023/08/24 06:02:23;;;;;;;;;10.50;10.25;;;;;;;;5013788;28;45324;-76
2023/08/24 06:04:50;;;;;;;;;10.50;10.50;;;;;;;;5014037;28;45440;-75
2023/08/24 06:07:16;;;;;;;;;10.25;9.25;;;;;;;;5017632;28;45468;-75
2023/08/24 06:09:41;;;;;;;;;16.00;13.00;;;;;;;;5016620;28;45457;-75
2023/08/24 06:12:06;;;;;;;;;10.75;9.50;;;;;;;;5018212;28;45350;-75
2023/08/24 06:14:31;;;;;;;;;11.50;10.25;;;;;;;;5009305;28;46521;-80
2023/08/24 06:16:57;;;;;;;;;13.50;11.00;;;;;;;;5017369;28;45232;-74
2023/08/24 06:19:22;;;;;;;;;12.75;11.75;;;;;;;;5015510;28;45643;-76
2023/08/24 06:21:47;;;;;;;;;12.75;10.50;;;;;;;;5021479;28;45473;-76
2023/08/24 06:24:12;;;;;;;;;13.50;12.00;;;;;;;;5015626;28;46397;-76
2023/08/24 06:26:37;;;;;;;;;10.50;10.50;;;;;;;;5020006;28;45243;-76
2023/08/24 06:29:03;;;;;;;;;10.25;10.00;;;;;;;;5016331;28;45673;-76
2023/08/24 06:31:30;;;;;;;;;12.75;11.50;;;;;;;;5019751;28;45362;-77
2023/08/24 06:33:55;;;;;;;;;12.00;12.00;;;;;;;;5010917;28;45357;-77
2023/08/24 06:36:20;;;;;;;;;12.25;11.00;;;;;;;;5019909;28;45333;-77
2023/08/24 06:38:45;;;;;;;;;11.00;11.00;;;;;;;;5011745;28;45307;-77
2023/08/24 06:41:12;;;;;;;;;12.25;11.00;;;;;;;;5018761;28;45599;-77
2023/08/24 06:43:38;;;;;;;;;10.25;10.00;;;;;;;;5012177;28;45366;-77
2023/08/24 06:46:04;;;;;;;;;5.00;5.00;;;;;;;;5033925;28;45307;-76
2023/08/24 06:48:29;;;;;;;;;17.25;12.75;;;;;;;;5013266;28;45434;-77
2023/08/24 06:50:54;;;;;;;;;11.00;9.25;;;;;;;;5019150;28;45532;-77
2023/08/24 06:53:19;;;;;;;;;15.75;11.25;;;;;;;;5017009;28;47356;-77
2023/08/24 06:55:44;;;;;;;;;11.75;11.75;;;;;;;;5013165;28;45350;-78
2023/08/24 06:58:10;;;;;;;;;11.50;10.75;;;;;;;;5012768;28;45351;-78
2023/08/24 07:00:35;;;;;;;;;10.50;10.50;;;;;;;;5013937;28;45336;-76
2023/08/24 07:03:00;;;;;;;;;14.00;11.50;;;;;;;;5017476;28;47157;-78
2023/08/24 07:05:25;;;;;;;;;11.00;11.00;;;;;;;;5015032;28;45236;-77
2023/08/24 07:07:51;;;;;;;;;11.25;10.75;;;;;;;;5015082;28;45347;-77
2023/08/24 07:10:17;;;;;;;;;12.75;9.75;;;;;;;;5015569;28;45220;-77
2023/08/24 07:12:44;;;;;;;;;12.25;9.75;;;;;;;;5015833;28;45740;-77
2023/08/24 07:15:10;;;;;;;;;10.00;9.00;;;;;;;;5016903;28;45319;-77
2023/08/24 07:17:35;;;;;;;;;12.50;11.75;;;;;;;;5016566;28;45505;-77
2023/08/24 07:20:00;;;;;;;;;10.25;8.50;;;;;;;;5017670;28;45268;-76
2023/08/24 07:22:28;;;;;;;;;12.25;12.25;;;;;;;;5017587;28;45292;-77
2023/08/24 07:24:54;;;;;;;;;8.50;7.50;;;;;;;;5022585;28;45628;-76
2023/08/24 07:27:19;;;;;;;;;10.00;10.00;;;;;;;;5016345;28;45240;-77
2023/08/24 07:29:45;;;;;;;;;12.75;10.75;;;;;;;;5017975;28;45601;-77
2023/08/24 07:32:10;;;;;;;;;12.75;11.50;;;;;;;;5017659;28;46818;-76
2023/08/24 07:34:35;;;;;;;;;13.50;11.75;;;;;;;;5010946;28;45339;-77
2023/08/24 07:37:00;;;;;;;;;9.75;9.75;;;;;;;;5018926;28;45193;-77
2023/08/24 07:39:26;;;;;;;;;10.50;10.00;;;;;;;;5010126;28;45281;-77
2023/08/24 07:41:51;;;;;;;;;12.50;11.00;;;;;;;;5007247;28;48754;-77
2023/08/24 07:44:16;;;;;;;;;11.00;10.00;;;;;;;;5010218;28;45400;-77
2023/08/24 07:46:41;;;;;;;;;11.50;10.50;;;;;;;;5019137;28;45252;-77
2023/08/24 07:49:07;;;;;;;;;9.00;8.25;;;;;;;;5013487;28;45382;-76
2023/08/24 07:51:35;;;;;;;;;13.50;11.25;;;;;;;;5022103;28;45366;-77
2023/08/24 07:54:01;;;;;;;;;13.20;11.40;;;;;;;;5014028;28;45330;-78
2023/08/24 07:56:26;;;;;;;;;9.50;8.50;;;;;;;;5021204;28;45389;-76
2023/08/24 07:58:51;;;;;;;;;12.50;11.25;;;;;;;;5014531;28;45311;-77
2023/08/24 08:01:16;;;;;;;;;11.50;9.25;;;;;;;;5016497;28;45363;-77
2023/08/24 08:03:41;;;;;;;;;10.50;10.50;;;;;;;;5013738;28;45256;-80
2023/08/24 08:06:07;;;;;;;;;11.25;9.50;;;;;;;;5017742;28;45338;-85
2023/08/24 08:08:32;;;;;;;;;11.50;11.00;;;;;;;;5020838;28;46070;-81
2023/08/24 08:10:59;;;;;;;;;7.25;7.25;;;;;;;;5014648;28;45496;-86
2023/08/24 08:13:24;;;;;;;;;9.80;9.60;;;;;;;;5017009;28;45405;-82
2023/08/24 08:15:50;;;;;;;;;12.25;11.00;;;;;;;;5019558;28;45320;-80
2023/08/24 08:18:15;;;;;;;;;11.75;10.75;;;;;;;;5018697;28;45629;-81
2023/08/24 08:20:40;;;;;;;;;14.50;11.25;;;;;;;;5021060;28;45380;-85
2023/08/24 08:23:05;;;;;;;;;12.25;11.00;;;;;;;;5018384;28;45473;-84
2023/08/24 08:25:30;;;;;;;;;13.75;12.25;;;;;;;;5019712;28;45385;-81
2023/08/24 08:27:56;;;;;;;;;12.75;12.00;;;;;;;;5018490;28;45693;-80
2023/08/24 08:30:21;;;;;;;;;13.00;12.00;;;;;;;;5020821;28;46091;-81
2023/08/24 08:32:46;;;;;;;;;12.00;11.00;;;;;;;;5017434;28;45215;-81
2023/08/24 08:35:11;;;;;;;;;11.75;10.00;;;;;;;;5014173;28;45283;-80
2023/08/24 08:37:38;;;;;;;;;11.75;11.25;;;;;;;;5018703;28;45534;-81
2023/08/24 08:40:06;;;;;;;;;12.80;10.60;;;;;;;;5016446;28;46776;-79
2023/08/24 08:42:33;;;;;;;;;9.40;9.40;;;;;;;;5019143;28;45594;-79
2023/08/24 08:44:59;;;;;;;;;11.00;11.00;;;;;;;;5016523;28;45370;-80
2023/08/24 08:47:25;;;;;;;;;10.25;8.50;;;;;;;;5019676;28;45361;-77
2023/08/24 08:49:50;;;;;;;;;8.75;7.50;;;;;;;;5016848;28;45475;-76
2023/08/24 08:52:15;;;;;;;;;13.50;10.25;;;;;;;;5018445;28;45469;-77
2023/08/24 08:54:41;;;;;;;;;11.00;11.00;;;;;;;;5010544;28;45403;-73
2023/08/24 08:57:06;;;;;;;;;10.50;10.50;;;;;;;;5034068;28;46381;-73
2023/08/24 08:59:32;;;;;;;;;8.75;7.25;;;;;;;;5011101;28;45460;-73
2023/08/24 09:01:58;;;;;;;;;11.50;10.50;;;;;;;;5019432;28;45250;-74
2023/08/24 09:04:33;;;;;;;;;7.25;7.25;;;;;;;;5004720;28;45435;-73
2023/08/24 09:07:00;;;;;;;;;10.00;10.00;;;;;;;;5020422;28;45537;-73
2023/08/24 09:09:26;;;;;;;;;12.40;11.40;;;;;;;;5015821;28;46283;-75
2023/08/24 09:11:51;;;;;;;;;9.00;8.00;;;;;;;;5020624;28;45398;-79
2023/08/24 09:14:17;;;;;;;;;13.00;10.00;;;;;;;;5013873;28;45385;-81
2023/08/24 09:16:42;;;;;;;;;8.75;8.25;;;;;;;;5020943;28;45517;-81
2023/08/24 09:19:10;;;;;;;;;10.25;9.25;;;;;;;;5017916;28;45449;-79
2023/08/24 09:21:39;;;;;;;;;12.60;9.40;;;;;;;;5020438;28;45298;-80
2023/08/24 09:24:05;;;;;;;;;9.00;9.00;;;;;;;;5015886;28;45460;-79
2023/08/24 09:26:31;;;;;;;;;9.60;8.20;;;;;;;;5020928;28;45582;-78
2023/08/24 09:28:57;;;;;;;;;7.80;7.00;;;;;;;;5017749;28;46163;-79
2023/08/24 09:31:22;;;;;;;;;9.50;9.50;;;;;;;;5019733;28;45355;-81
2023/08/24 09:33:48;;;;;;;;;7.75;7.50;;;;;;;;5013623;28;45468;-80
2023/08/24 09:36:14;;;;;;;;;11.00;9.25;;;;;;;;5020799;28;45467;-81
2023/08/24 09:38:45;;;;;;;;;10.50;9.25;;;;;;;;5010249;28;45351;-81
2023/08/24 09:41:10;;;;;;;;;10.20;8.80;;;;;;;;5014123;28;45370;-86
2023/08/24 09:43:36;;;;;;;;;11.75;11.00;;;;;;;;5016734;28;45486;-80
2023/08/24 09:46:02;;;;;;;;;12.00;10.00;;;;;;;;5019853;28;45770;-80
2023/08/24 09:48:28;;;;;;;;;13.80;11.00;;;;;;;;5015251;28;45604;-80
2023/08/24 09:50:55;;;;;;;;;10.00;10.00;;;;;;;;5019529;28;45268;-81
2023/08/24 09:53:21;;;;;;;;;10.20;10.20;;;;;;;;5016654;28;45234;-81
2023/08/24 09:55:59;;;;;;;;;11.25;10.00;;;;;;;;5020518;28;45607;-81
2023/08/24 09:58:25;;;;;;;;;9.60;9.00;;;;;;;;5009420;28;47318;-80
2023/08/24 10:00:51;;;;;;;;;10.00;10.00;;;;;;;;5015313;28;45363;-80
2023/08/24 10:03:21;;;;;;;;;12.00;10.50;;;;;;;;5012771;28;45526;-80
2023/08/24 10:06:02;;;;;;;;;9.60;9.60;;;;;;;;5015120;28;46987;-81
2023/08/24 10:08:29;;;;;;;;;9.80;9.80;;;;;;;;5018691;28;46991;-82
2023/08/24 10:10:58;;;;;;;;;10.60;10.60;;;;;;;;5017779;28;45418;-80
2023/08/24 10:13:29;;;;;;;;;10.80;9.20;;;;;;;;5017974;28;45410;-81
2023/08/24 10:15:55;;;;;;;;;9.00;9.00;;;;;;;;5018534;28;45746;-80
2023/08/24 10:18:23;;;;;;;;;7.20;6.40;;;;;;;;5018016;28;46317;-80
2023/08/24 10:20:48;;;;;;;;;10.80;10.40;;;;;;;;5019665;28;45405;-80
2023/08/24 10:23:15;;;;;;;;;10.00;10.00;;;;;;;;5016844;28;45432;-82
2023/08/24 10:25:42;;;;;;;;;8.20;8.20;;;;;;;;5019880;28;45361;-79
2023/08/24 10:28:07;;;;;;;;;11.20;10.00;;;;;;;;5015970;28;45496;-81
2023/08/24 10:30:33;;;;;;;;;12.25;9.75;;;;;;;;5014967;28;45322;-79
2023/08/24 10:32:59;;;;;;;;;10.40;9.60;;;;;;;;5018099;28;45300;-79
2023/08/24 10:35:26;;;;;;;;;10.60;10.60;;;;;;;;5018670;28;45245;-80
2023/08/24 10:37:52;;;;;;;;;9.80;9.60;;;;;;;;5017455;28;45512;-79
2023/08/24 10:40:43;;;;;;;;;9.60;8.40;;;;;;;;5014431;28;45296;-79
2023/08/24 10:43:09;;;;;;;;;9.40;9.40;;;;;;;;5006550;28;45320;-80
2023/08/24 10:45:53;;;;;;;;;10.75;9.00;;;;;;;;5016599;28;45652;-79
2023/08/24 10:48:19;;;;;;;;;10.20;8.40;;;;;;;;5012614;28;46613;-79
2023/08/24 10:51:04;;;;;;;;;12.00;11.50;;;;;;;;5012423;28;45268;-83
2023/08/24 10:53:39;;;;;;;;;9.40;9.40;;;;;;;;5012315;28;45293;-80
2023/08/24 10:56:13;;;;;;;;;8.80;8.80;;;;;;;;5018133;28;45618;-80
2023/08/24 10:58:39;;;;;;;;;10.00;9.00;;;;;;;;5015099;28;46528;-80
2023/08/24 11:01:04;;;;;;;;;11.25;9.50;;;;;;;;5013746;28;45298;-79
2023/08/24 11:03:35;;;;;;;;;10.00;8.25;;;;;;;;5014037;28;45240;-80
2023/08/24 11:06:00;;;;;;;;;10.80;10.00;;;;;;;;5014533;28;45998;-80
2023/08/24 11:08:45;;;;;;;;;10.50;10.50;;;;;;;;5014835;28;46467;-78
2023/08/24 11:11:24;;;;;;;;;9.40;8.60;;;;;;;;5005948;28;45260;-79
2023/08/24 11:14:09;;;;;;;;;7.20;7.20;;;;;;;;5010103;28;45395;-80
2023/08/24 11:16:44;;;;;;;;;6.80;6.80;;;;;;;;5018114;28;45562;-80
2023/08/24 11:19:10;;;;;;;;;6.40;6.20;;;;;;;;5013788;28;45588;-78
2023/08/24 11:21:36;;;;;;;;;7.00;5.80;;;;;;;;5017740;28;45326;-81
2023/08/24 11:24:02;;;;;;;;;6.00;4.75;;;;;;;;5009785;28;45495;-81
2023/08/24 11:26:28;;;;;;;;;6.80;4.20;;;;;;;;5016600;28;45284;-82
2023/08/24 11:28:54;;;;;;;;;5.20;5.20;;;;;;;;5013861;28;45621;-82
2023/08/24 11:31:20;;;;;;;;;6.75;6.75;;;;;;;;5019213;28;45251;-80
2023/08/24 11:33:45;;;;;;;;;9.75;8.50;;;;;;;;5010541;28;45426;-79
2023/08/24 11:36:12;;;;;;;;;7.00;6.00;;;;;;;;5019286;28;45408;-76
2023/08/24 11:38:41;;;;;;;;;6.20;6.20;;;;;;;;5011400;28;45546;-82
2023/08/24 11:41:16;;;;;;;;;6.20;6.20;;;;;;;;5013696;28;45291;-81
2023/08/24 11:43:42;;;;;;;;;5.60;4.80;;;;;;;;5015374;28;45272;-78
2023/08/24 11:46:07;;;;;;;;;8.25;7.50;;;;;;;;5018872;28;45488;-81
2023/08/24 11:48:33;;;;;;;;;5.00;5.00;;;;;;;;5009418;28;46104;-81
2023/08/24 11:50:58;;;;;;;;;6.75;6.75;;;;;;;;5004348;28;45346;-78
2023/08/24 11:53:24;;;;;;;;;4.25;4.25;;;;;;;;5006854;28;45544;-80
2023/08/24 11:55:49;;;;;;;;;5.25;5.25;;;;;;;;5012768;28;45485;-79
2023/08/24 11:58:15;;;;;;;;;5.75;5.75;;;;;;;;5014913;28;46749;-78
2023/08/24 12:00:41;;;;;;;;;5.20;5.20;;;;;;;;5014375;28;45450;-78
2023/08/24 12:03:06;;;;;;;;;7.00;5.75;;;;;;;;5013217;28;45291;-80
2023/08/24 12:05:32;;;;;;;;;3.75;3.75;;;;;;;;5006845;28;45390;-78
2023/08/24 12:07:57;;;;;;;;;7.25;7.25;;;;;;;;5014466;28;45643;-81
2023/08/24 12:10:22;;;;;;;;;5.00;5.00;;;;;;;;5007559;28;45457;-78
2023/08/24 12:12:48;;;;;;;;;6.00;5.50;;;;;;;;5015879;28;45408;-83
2023/08/24 12:15:19;;;;;;;;;6.25;6.25;;;;;;;;5008547;28;45566;-80
2023/08/24 12:17:45;;;;;;;;;6.25;6.25;;;;;;;;5016102;28;45509;-77
2023/08/24 12:20:30;;;;;;;;;8.50;8.50;;;;;;;;5005078;28;45368;-79
2023/08/24 12:22:55;;;;;;;;;9.00;8.00;;;;;;;;5009378;28;45331;-76
2023/08/24 12:25:24;;;;;;;;;10.25;7.75;;;;;;;;5016239;28;45555;-78
2023/08/24 12:27:52;;;;;;;;;6.25;6.25;;;;;;;;5014117;28;46457;-77
2023/08/24 12:30:18;;;;;;;;;9.80;7.80;;;;;;;;5010306;28;45192;-77
2023/08/24 12:32:44;;;;;;;;;8.00;7.75;;;;;;;;5014866;28;45563;-78
2023/08/24 12:35:09;;;;;;;;;6.75;6.75;;;;;;;;5005266;28;45900;-77
2023/08/24 12:37:35;;;;;;;;;10.25;8.50;;;;;;;;5017604;28;45514;-76
2023/08/24 12:40:01;;;;;;;;;8.25;8.25;;;;;;;;5007473;28;45477;-79
2023/08/24 12:42:26;;;;;;;;;10.25;8.75;;;;;;;;5017017;28;45461;-76
2023/08/24 12:44:51;;;;;;;;;8.25;8.25;;;;;;;;5012181;28;45446;-77
2023/08/24 12:47:16;;;;;;;;;10.25;8.75;;;;;;;;5011014;28;45465;-76
2023/08/24 12:49:41;;;;;;;;;9.25;8.00;;;;;;;;5009867;28;45469;-78
2023/08/24 12:52:07;;;;;;;;;7.75;7.75;;;;;;;;5011423;28;45248;-77
2023/08/24 12:54:32;;;;;;;;;10.75;8.00;;;;;;;;5011822;28;45209;-74
2023/08/24 12:56:57;;;;;;;;;5.75;5.75;;;;;;;;5012845;28;45948;-77
2023/08/24 12:59:23;;;;;;;;;8.25;7.25;;;;;;;;5009119;28;45296;-80
2023/08/24 13:01:48;;;;;;;;;8.75;6.00;;;;;;;;5009933;28;45302;-77
2023/08/24 13:04:13;;;;;;;;;7.75;7.75;;;;;;;;5008904;28;45451;-78
2023/08/24 13:06:38;;;;;;;;;9.00;8.75;;;;;;;;5009124;28;45593;-78
2023/08/24 13:09:03;;;;;;;;;8.00;7.00;;;;;;;;5008398;28;45289;-77
2023/08/24 13:11:29;;;;;;;;;7.25;7.00;;;;;;;;5008341;28;45191;-78
2023/08/24 13:13:54;;;;;;;;;8.25;7.25;;;;;;;;5012779;28;46377;-76
2023/08/24 13:16:19;;;;;;;;;6.50;6.00;;;;;;;;5013369;28;45399;-76
2023/08/24 13:18:44;;;;;;;;;7.75;7.75;;;;;;;;5013746;28;45299;-79
2023/08/24 13:21:09;;;;;;;;;8.75;8.00;;;;;;;;5010638;28;45246;-79
2023/08/24 13:23:35;;;;;;;;;7.50;7.50;;;;;;;;5011672;28;45391;-79
2023/08/24 13:26:00;;;;;;;;;9.25;9.25;;;;;;;;5008496;28;46681;-79
2023/08/24 13:28:26;;;;;;;;;8.50;8.50;;;;;;;;5010179;28;45419;-78
2023/08/24 13:30:51;;;;;;;;;11.75;8.50;;;;;;;;5015712;28;45194;-78
2023/08/24 13:33:17;;;;;;;;;11.25;10.00;;;;;;;;5013642;28;45608;-77
2023/08/24 13:35:42;;;;;;;;;9.00;9.00;;;;;;;;5011810;28;46499;-77
2023/08/24 13:38:07;;;;;;;;;7.75;7.00;;;;;;;;5006260;28;45227;-79
2023/08/24 13:40:32;;;;;;;;;10.00;10.00;;;;;;;;5010714;28;45474;-77
2023/08/24 13:42:58;;;;;;;;;14.50;13.00;;;;;;;;5015578;28;45398;-77
2023/08/24 13:45:23;;;;;;;;;12.00;11.00;;;;;;;;5016382;28;46468;-78
2023/08/24 13:47:48;;;;;;;;;10.75;10.75;;;;;;;;5015334;28;45211;-80
2023/08/24 13:50:13;;;;;;;;;11.75;11.00;;;;;;;;5008294;28;45150;-78
2023/08/24 13:52:38;;;;;;;;;10.00;10.00;;;;;;;;5017357;28;45367;-74
2023/08/24 13:55:04;;;;;;;;;10.25;10.25;;;;;;;;5012654;28;45902;-74
2023/08/24 13:57:30;;;;;;;;;12.25;12.25;;;;;;;;5013739;28;45331;-74
2023/08/24 13:59:55;;;;;;;;;10.00;10.00;;;;;;;;5010359;28;45327;-74
2023/08/24 14:02:20;;;;;;;;;10.75;10.75;;;;;;;;5005749;28;45491;-74
2023/08/24 14:04:46;;;;;;;;;12.75;12.25;;;;;;;;5013504;28;46281;-74
2023/08/24 14:07:11;;;;;;;;;14.25;13.00;;;;;;;;5019499;28;45237;-75
2023/08/24 14:09:36;;;;;;;;;18.50;15.00;;;;;;;;5014288;28;45497;-77
2023/08/24 14:12:01;;;;;;;;;12.75;12.75;;;;;;;;5020239;28;45508;-77
2023/08/24 14:14:27;;;;;;;;;15.25;15.25;;;;;;;;5015709;28;46392;-79
2023/08/24 14:16:55;;;;;;;;;16.00;12.00;;;;;;;;5020213;28;45449;-79
2023/08/24 14:19:21;;;;;;;;;15.25;13.50;;;;;;;;5017724;28;45553;-78
2023/08/24 14:21:46;;;;;;;;;13.50;13.00;;;;;;;;5019119;28;46019;-82
2023/08/24 14:24:11;;;;;;;;;14.50;14.50;;;;;;;;5016701;28;46386;-78
2023/08/24 14:26:39;;;;;;;;;14.75;14.50;;;;;;;;5007500;28;45382;-79
2023/08/24 14:29:04;;;;;;;;;15.25;14.00;;;;;;;;5006658;28;45547;-78
2023/08/24 14:31:29;;;;;;;;;13.00;13.00;;;;;;;;5008485;28;45378;-77
2023/08/24 14:33:55;;;;;;;;;17.25;14.50;;;;;;;;5014832;28;47945;-77
2023/08/24 14:36:21;;;;;;;;;16.00;13.50;;;;;;;;5019177;28;45636;-80
2023/08/24 14:38:46;;;;;;;;;13.25;13.00;;;;;;;;5018399;28;45420;-80
2023/08/24 14:41:13;;;;;;;;;9.75;9.75;;;;;;;;5010393;28;45631;-77
2023/08/24 14:43:41;;;;;;;;;14.25;13.25;;;;;;;;5004085;28;46749;-80
2023/08/24 14:46:07;;;;;;;;;12.80;12.40;;;;;;;;5012864;28;45283;-81
2023/08/24 14:48:32;;;;;;;;;12.50;11.75;;;;;;;;5017763;28;45396;-78
2023/08/24 14:50:58;;;;;;;;;14.50;12.75;;;;;;;;5012977;28;45160;-78
2023/08/24 14:53:23;;;;;;;;;14.50;12.25;;;;;;;;5007397;28;46195;-82
2023/08/24 14:55:49;;;;;;;;;13.75;11.00;;;;;;;;5013634;28;45240;-79
2023/08/24 14:58:14;;;;;;;;;14.25;14.25;;;;;;;;5005493;28;45502;-79
2023/08/24 15:00:39;;;;;;;;;13.00;10.25;;;;;;;;5007077;28;46013;-79
2023/08/24 15:03:04;;;;;;;;;12.00;12.00;;;;;;;;5001644;28;47208;-82
2023/08/24 15:05:30;;;;;;;;;15.50;15.00;;;;;;;;5011320;28;45605;-82
2023/08/24 15:07:55;;;;;;;;;15.25;15.25;;;;;;;;5003177;28;45463;-79
2023/08/24 15:10:20;;;;;;;;;9.00;6.75;;;;;;;;5002081;28;45553;-82
2023/08/24 15:12:46;;;;;;;;;13.00;12.75;;;;;;;;5002510;28;45428;-82
2023/08/24 15:15:13;;;;;;;;;11.50;10.75;;;;;;;;5018665;28;45519;-80
2023/08/24 15:17:38;;;;;;;;;11.40;10.60;;;;;;;;5016549;28;45239;-83
2023/08/24 15:20:05;;;;;;;;;14.50;10.50;;;;;;;;5017580;28;46150;-80
2023/08/24 15:22:30;;;;;;;;;11.00;11.00;;;;;;;;5015981;28;46062;-79
2023/08/24 15:24:55;;;;;;;;;14.00;12.25;;;;;;;;5018085;28;45315;-80
2023/08/24 15:27:21;;;;;;;;;12.25;12.25;;;;;;;;5016869;28;45219;-81
2023/08/24 15:29:46;;;;;;;;;13.25;11.50;;;;;;;;5014865;28;45498;-79
2023/08/24 15:32:11;;;;;;;;;11.25;11.00;;;;;;;;5014878;28;45610;-80
2023/08/24 15:34:36;;;;;;;;;13.00;12.25;;;;;;;;5011444;28;45208;-80
2023/08/24 15:37:02;;;;;;;;;9.50;9.50;;;;;;;;5014393;28;45580;-79
2023/08/24 15:39:27;;;;;;;;;12.50;12.50;;;;;;;;5009622;28;45292;-78
2023/08/24 15:41:52;;;;;;;;;14.50;11.50;;;;;;;;5016289;28;45350;-80
2023/08/24 15:44:17;;;;;;;;;8.75;8.75;;;;;;;;5012983;28;45481;-77
2023/08/24 15:46:42;;;;;;;;;7.25;7.25;;;;;;;;5019401;28;45432;-76
2023/08/24 15:49:08;;;;;;;;;11.75;11.50;;;;;;;;5010449;28;45789;-75
2023/08/24 15:51:33;;;;;;;;;11.50;10.25;;;;;;;;5015675;28;45245;-75
2023/08/24 15:53:59;;;;;;;;;10.50;9.50;;;;;;;;5013915;28;45205;-78
2023/08/24 15:56:25;;;;;;;;;13.60;11.40;;;;;;;;5017642;28;45453;-74
2023/08/24 15:58:50;;;;;;;;;11.75;10.00;;;;;;;;5015945;28;45458;-76
2023/08/24 16:01:15;;;;;;;;;9.00;9.00;;;;;;;;5017561;28;47519;-77
2023/08/24 16:03:41;;;;;;;;;8.25;8.25;;;;;;;;5013379;28;46140;-78
2023/08/24 16:06:07;;;;;;;;;8.20;8.20;;;;;;;;5019520;28;45316;-81
2023/08/24 16:08:32;;;;;;;;;21.25;21.25;;;;;;;;5011277;28;45413;-78
2023/08/24 16:10:57;;;;;;;;;60.00;46.67;;;;;;;;5011989;28;45565;-78
2023/08/24 16:13:23;;;;;;;;;7.25;7.25;;;;;;;;5018295;28;45417;-78
2023/08/24 16:15:48;;;;;;;;;35.67;32.00;;;;;;;;5014013;28;45373;-78
2023/08/24 16:18:14;;;;;;;;;14.25;14.00;;;;;;;;5016808;28;45577;-78
2023/08/24 16:20:39;;;;;;;;;103.50;100.25;;;;;;;;5022163;28;46485;-77
2023/08/24 16:23:04;;;;;;;;;53.33;43.67;;;;;;;;5016592;28;45276;-78
2023/08/24 16:25:29;;;;;;;;;22.75;21.75;;;;;;;;5013851;28;45442;-79
2023/08/24 16:27:55;;;;;;;;;10.25;10.25;;;;;;;;5020087;28;45382;-76
2023/08/24 16:30:20;;;;;;;;;72.67;64.67;;;;;;;;5015173;28;46327;-78
2023/08/24 16:32:45;;;;;;;;;24.50;23.25;;;;;;;;5019099;28;45370;-78
2023/08/24 16:35:11;;;;;;;;;13.25;11.50;;;;;;;;5010007;28;45371;-76
2023/08/24 16:37:36;;;;;;;;;58.00;46.00;;;;;;;;5017075;28;45541;-77
2023/08/24 16:40:01;;;;;;;;;168.00;151.00;;;;;;;;5015671;28;47785;-78
2023/08/24 16:42:27;;;;;;;;;134.50;127.25;;;;;;;;5018739;28;45366;-77
2023/08/24 16:44:52;;;;;;;;;28.00;21.33;;;;;;;;5015181;28;45356;-77
2023/08/24 16:47:17;;;;;;;;;29.25;25.00;;;;;;;;5017571;28;45249;-78
2023/08/24 16:49:42;;;;;;;;;6.00;5.00;;;;;;;;5012340;28;45415;-77
2023/08/24 16:52:07;;;;;;;;;33.75;30.75;;;;;;;;5018317;28;45157;-78
2023/08/24 16:54:33;;;;;;;;;10.75;8.75;;;;;;;;5013045;28;45497;-77
2023/08/24 16:56:58;;;;;;;;;47.33;37.33;;;;;;;;5033520;28;45394;-79
2023/08/24 16:59:23;;;;;;;;;159.00;153.00;;;;;;;;5014204;28;46554;-75
2023/08/24 17:01:48;;;;;;;;;16.75;15.75;;;;;;;;5010866;28;45149;-78
2023/08/24 17:04:14;;;;;;;;;6.75;6.75;;;;;;;;5016055;28;45748;-79
2023/08/24 17:06:39;;;;;;;;;25.50;19.50;;;;;;;;5017771;28;45393;-77
2023/08/24 17:09:04;;;;;;;;;11.25;10.25;;;;;;;;5009752;28;45748;-77
2023/08/24 17:11:29;;;;;;;;;20.75;20.75;;;;;;;;5016858;28;45264;-75
2023/08/24 17:13:54;;;;;;;;;152.25;139.50;;;;;;;;5016153;28;45476;-77
2023/08/24 17:16:20;;;;;;;;;71.00;64.75;;;;;;;;5018247;28;45445;-78
2023/08/24 17:18:45;;;;;;;;;16.00;16.00;;;;;;;;5015732;28;46933;-77
2023/08/24 17:21:11;;;;;;;;;18.75;18.75;;;;;;;;5016742;28;45456;-79
2023/08/24 17:23:37;;;;;;;;;45.67;37.00;;;;;;;;5016170;28;45539;-79
2023/08/24 17:26:02;;;;;;;;;10.00;8.20;;;;;;;;5003672;28;45463;-77
2023/08/24 17:28:27;;;;;;;;;20.00;17.75;;;;;;;;5012751;28;46501;-78
2023/08/24 17:30:53;;;;;;;;;17.25;15.25;;;;;;;;5004594;28;45548;-78
2023/08/24 17:33:20;;;;;;;;;15.25;13.50;;;;;;;;5013473;28;45402;-77
2023/08/24 17:35:45;;;;;;;;;18.75;15.50;;;;;;;;5009206;28;46138;-77
2023/08/24 17:38:10;;;;;;;;;20.00;19.50;;;;;;;;5015692;28;46344;-77
2023/08/24 17:40:36;;;;;;;;;12.25;11.25;;;;;;;;5017354;28;45422;-77
2023/08/24 17:43:01;;;;;;;;;19.50;19.00;;;;;;;;5016398;28;45140;-75
2023/08/24 17:45:26;;;;;;;;;18.25;18.25;;;;;;;;5019381;28;45277;-77
2023/08/24 17:47:51;;;;;;;;;27.50;25.00;;;;;;;;5017824;28;46448;-76
2023/08/24 17:50:17;;;;;;;;;14.00;12.50;;;;;;;;5015310;28;45354;-75
2023/08/24 17:52:42;;;;;;;;;42.33;34.33;;;;;;;;5018522;28;45283;-75
2023/08/24 17:55:08;;;;;;;;;29.00;27.50;;;;;;;;5009883;28;46557;-75
2023/08/24 17:57:34;;;;;;;;;61.00;47.67;;;;;;;;5017757;28;46184;-76
2023/08/24 17:59:59;;;;;;;;;34.50;30.50;;;;;;;;5014949;28;45386;-75
2023/08/24 18:02:25;;;;;;;;;91.50;86.00;;;;;;;;5018328;28;45257;-75
2023/08/24 18:04:50;;;;;;;;;44.33;37.67;;;;;;;;5012264;28;45324;-75
2023/08/24 18:07:16;;;;;;;;;26.33;22.67;;;;;;;;5018327;28;46754;-75
2023/08/24 18:09:41;;;;;;;;;68.00;52.50;;;;;;;;5011087;28;45341;-75
2023/08/24 18:12:07;;;;;;;;;75.25;66.50;;;;;;;;5020195;28;45367;-76
2023/08/24 18:14:32;;;;;;;;;15.25;13.00;;;;;;;;5014730;28;45476;-75
2023/08/24 18:16:57;;;;;;;;;22.75;21.00;;;;;;;;5020197;28;45616;-75
2023/08/24 18:19:23;;;;;;;;;60.00;48.00;;;;;;;;5005498;28;45555;-75
2023/08/24 18:21:48;;;;;;;;;85.00;76.25;;;;;;;;5020635;28;45307;-75
2023/08/24 18:24:13;;;;;;;;;34.00;29.67;;;;;;;;5018296;28;45446;-75
2023/08/24 18:26:38;;;;;;;;;49.67;40.33;;;;;;;;5008245;28;45466;-75
2023/08/24 18:29:04;;;;;;;;;12.25;12.25;;;;;;;;5007977;28;45470;-75
2023/08/24 18:31:29;;;;;;;;;30.25;29.00;;;;;;;;5009672;28;45320;-75
2023/08/24 18:33:54;;;;;;;;;74.00;62.50;;;;;;;;5006925;28;45464;-75
2023/08/24 18:36:19;;;;;;;;;14.00;11.00;;;;;;;;5020117;28;45440;-76
2023/08/24 18:38:45;;;;;;;;;10.00;10.00;;;;;;;;5011615;28;45339;-77
2023/08/24 18:41:11;;;;;;;;;93.75;89.25;;;;;;;;5020269;28;45600;-76
2023/08/24 18:43:36;;;;;;;;;20.25;16.75;;;;;;;;5013431;28;45329;-76
2023/08/24 18:46:04;;;;;;;;;126.25;117.25;;;;;;;;5019634;28;45513;-74
2023/08/24 18:48:29;;;;;;;;;23.75;22.00;;;;;;;;5013652;28;45363;-75
2023/08/24 18:50:55;;;;;;;;;105.75;98.75;;;;;;;;5018668;28;45331;-75
2023/08/24 18:53:20;;;;;;;;;66.75;54.75;;;;;;;;5014945;28;46927;-75
2023/08/24 18:55:45;;;;;;;;;65.67;51.00;;;;;;;;5018256;28;47276;-75
2023/08/24 18:58:10;;;;;;;;;81.25;75.50;;;;;;;;5014003;28;45309;-75
2023/08/24 19:00:36;;;;;;;;;8.00;8.00;;;;;;;;5016131;28;45367;-75
2023/08/24 19:03:02;;;;;;;;;44.33;38.33;;;;;;;;5013322;28;45544;-74
2023/08/24 19:05:27;;;;;;;;;47.33;36.33;;;;;;;;5016793;28;46410;-75
2023/08/24 19:07:52;;;;;;;;;31.67;28.67;;;;;;;;5015117;28;45337;-75
2023/08/24 19:10:18;;;;;;;;;12.25;12.00;;;;;;;;5018010;28;45350;-75
2023/08/24 19:12:46;;;;;;;;;70.75;59.00;;;;;;;;5017217;28;45394;-74
2023/08/24 19:15:11;;;;;;;;;25.00;21.75;;;;;;;;5017440;28;47918;-75
2023/08/24 19:17:36;;;;;;;;;14.00;11.75;;;;;;;;5017154;28;45271;-75
2023/08/24 19:20:01;;;;;;;;;12.00;11.50;;;;;;;;5016919;28;45256;-75
2023/08/24 19:22:27;;;;;;;;;45.00;36.00;;;;;;;;5017457;28;45701;-74
2023/08/24 19:24:52;;;;;;;;;18.75;17.75;;;;;;;;5014953;28;45247;-75
2023/08/24 19:27:17;;;;;;;;;13.00;11.00;;;;;;;;5018494;28;45209;-75
2023/08/24 19:29:42;;;;;;;;;15.00;13.50;;;;;;;;5016735;28;45154;-75
2023/08/24 19:32:07;;;;;;;;;65.00;51.67;;;;;;;;5019081;28;45626;-75
2023/08/24 19:34:33;;;;;;;;;63.25;52.75;;;;;;;;5008729;28;45622;-75
2023/08/24 19:36:58;;;;;;;;;72.00;62.75;;;;;;;;5019241;28;45279;-75
2023/08/24 19:39:23;;;;;;;;;51.00;40.00;;;;;;;;5011356;28;45247;-74
2023/08/24 19:41:48;;;;;;;;;12.25;12.25;;;;;;;;5019013;28;45442;-84
2023/08/24 19:44:14;;;;;;;;;68.33;56.67;;;;;;;;5015754;28;46138;-83
2023/08/24 19:46:39;;;;;;;;;58.33;47.67;;;;;;;;5019125;28;45184;-82
2023/08/24 19:49:04;;;;;;;;;17.00;14.75;;;;;;;;5016785;28;45478;-82
2023/08/24 19:51:30;;;;;;;;;55.33;45.33;;;;;;;;5017455;28;45524;-82
2023/08/24 19:53:57;;;;;;;;;64.67;51.67;;;;;;;;5011863;28;45601;-83
2023/08/24 19:56:23;;;;;;;;;26.00;23.75;;;;;;;;5017634;28;45574;-83
2023/08/24 19:58:48;;;;;;;;;61.33;48.33;;;;;;;;5013452;28;45517;-83
2023/08/24 20:01:13;;;;;;;;;48.67;39.67;;;;;;;;5015982;28;45413;-83
2023/08/24 20:03:38;;;;;;;;;25.00;23.25;;;;;;;;5010190;28;47898;-83